createdAt,value
2023-03-11T00:00:33.803Z,12.62
2023-03-11T00:03:02.214Z,12.57
2023-03-11T00:05:32.340Z,12.48
2023-03-11T00:07:59.517Z,12.40
2023-03-11T00:10:30.338Z,12.32
2023-03-11T00:12:58.186Z,12.29
2023-03-11T00:15:25.461Z,12.27
2023-03-11T00:17:52.448Z,12.27
2023-03-11T00:20:25.402Z,12.32
2023-03-11T00:22:52.552Z,12.33
2023-03-11T00:25:20.872Z,12.34
2023-03-11T00:27:47.418Z,12.36
2023-03-11T00:30:15.176Z,12.38
2023-03-11T00:32:41.791Z,12.41
2023-03-11T00:35:11.338Z,12.42
2023-03-11T00:37:37.827Z,12.42
2023-03-11T00:40:08.740Z,12.39
2023-03-11T00:42:35.264Z,12.35
2023-03-11T00:45:01.792Z,12.27
2023-03-11T00:47:28.346Z,12.21
2023-03-11T00:49:54.912Z,12.14
2023-03-11T00:52:21.466Z,12.11
2023-03-11T00:54:47.993Z,12.09
2023-03-11T00:57:14.553Z,12.08
2023-03-11T00:59:41.124Z,12.08
2023-03-11T01:02:07.736Z,12.09
2023-03-11T01:04:34.308Z,12.12
2023-03-11T01:07:00.852Z,12.11
2023-03-11T01:09:27.376Z,12.08
2023-03-11T01:11:54.263Z,12.05
2023-03-11T01:14:20.964Z,12.04
2023-03-11T01:16:47.551Z,12.05
2023-03-11T01:19:14.043Z,12.02
2023-03-11T01:21:40.667Z,12.01
2023-03-11T01:24:07.295Z,11.98
2023-03-11T01:26:33.829Z,11.95
2023-03-11T01:29:00.396Z,11.92
2023-03-11T01:31:26.996Z,11.88
2023-03-11T01:33:53.575Z,11.82
2023-03-11T01:36:20.124Z,11.80
2023-03-11T01:38:46.635Z,11.78
2023-03-11T01:41:13.394Z,11.76
2023-03-11T01:43:41.799Z,11.75
2023-03-11T01:46:13.611Z,11.74
2023-03-11T01:48:42.248Z,11.73
2023-03-11T01:51:09.418Z,11.74
2023-03-11T01:53:35.991Z,11.73
2023-03-11T01:56:04.260Z,11.58
2023-03-11T01:58:36.331Z,11.53
2023-03-11T02:01:03.444Z,11.53
2023-03-11T02:03:33.037Z,11.53
2023-03-11T02:06:02.327Z,11.52
2023-03-11T02:08:30.125Z,11.50
2023-03-11T02:10:57.244Z,11.45
2023-03-11T02:13:23.940Z,11.38
2023-03-11T02:15:50.539Z,11.39
2023-03-11T02:18:20.418Z,11.40
2023-03-11T02:21:28.503Z,11.38
2023-03-11T02:24:13.590Z,11.42
2023-03-11T02:26:59.146Z,11.44
2023-03-11T02:29:27.619Z,11.45
2023-03-11T02:31:56.190Z,11.44
2023-03-11T02:34:29.016Z,11.43
2023-03-11T02:36:55.782Z,11.43
2023-03-11T02:39:33.995Z,11.45
2023-03-11T02:42:03.330Z,11.48
2023-03-11T02:44:29.886Z,11.49
2023-03-11T02:46:56.665Z,11.51
2023-03-11T02:49:23.519Z,11.52
2023-03-11T02:51:50.309Z,11.53
2023-03-11T02:54:16.929Z,11.54
2023-03-11T02:56:43.589Z,11.51
2023-03-11T02:59:10.249Z,11.49
2023-03-11T03:01:36.876Z,11.42
2023-03-11T03:04:03.681Z,11.37
2023-03-11T03:06:30.218Z,11.36
2023-03-11T03:08:56.723Z,11.39
2023-03-11T03:11:23.347Z,11.39
2023-03-11T03:13:49.886Z,11.34
2023-03-11T03:16:16.530Z,11.31
2023-03-11T03:18:43.138Z,11.28
2023-03-11T03:21:09.735Z,11.25
2023-03-11T03:23:37.832Z,11.22
2023-03-11T03:26:05.778Z,11.22
2023-03-11T03:28:32.350Z,11.17
2023-03-11T03:31:06.912Z,11.06
2023-03-11T03:33:33.671Z,10.97
2023-03-11T03:36:00.235Z,10.91
2023-03-11T03:38:26.898Z,10.89
2023-03-11T03:40:53.421Z,10.86
2023-03-11T03:43:19.928Z,10.85
2023-03-11T03:45:46.490Z,10.88
2023-03-11T03:48:13.037Z,10.91
2023-03-11T03:50:40.449Z,10.91
2023-03-11T03:53:07.172Z,10.92
2023-03-11T03:55:33.662Z,10.88
2023-03-11T03:58:00.179Z,10.83
2023-03-11T04:00:26.792Z,10.77
2023-03-11T04:02:53.339Z,10.70
2023-03-11T04:05:19.853Z,10.68
2023-03-11T04:07:46.456Z,10.63
2023-03-11T04:10:14.440Z,10.62
2023-03-11T04:12:40.928Z,10.67
2023-03-11T04:15:07.790Z,10.67
2023-03-11T04:17:34.353Z,10.64
2023-03-11T04:20:00.880Z,10.58
2023-03-11T04:22:27.504Z,10.55
2023-03-11T04:24:54.088Z,10.54
2023-03-11T04:27:20.585Z,10.59
2023-03-11T04:29:47.148Z,10.64
2023-03-11T04:32:13.730Z,10.68
2023-03-11T04:34:40.796Z,10.73
2023-03-11T04:37:07.384Z,10.80
2023-03-11T04:39:34.056Z,10.73
2023-03-11T04:42:02.871Z,10.72
2023-03-11T04:44:30.390Z,10.79
2023-03-11T04:46:57.033Z,10.85
2023-03-11T04:49:23.573Z,10.87
2023-03-11T04:51:50.184Z,10.87
2023-03-11T04:54:16.761Z,10.85
2023-03-11T04:56:43.274Z,10.86
2023-03-11T04:59:09.763Z,10.88
2023-03-11T05:01:36.326Z,10.92
2023-03-11T05:04:02.961Z,10.94
2023-03-11T05:06:29.515Z,10.90
2023-03-11T05:08:56.047Z,10.92
2023-03-11T05:11:22.588Z,10.95
2023-03-11T05:13:49.210Z,11.00
2023-03-11T05:16:17.112Z,11.03
2023-03-11T05:18:43.614Z,11.04
2023-03-11T05:21:10.109Z,11.05
2023-03-11T05:23:36.664Z,11.00
2023-03-11T05:26:03.267Z,10.90
2023-03-11T05:28:29.815Z,10.81
2023-03-11T05:30:56.416Z,10.75
2023-03-11T05:33:23.409Z,10.68
2023-03-11T05:35:51.949Z,10.64
2023-03-11T05:38:18.611Z,10.63
2023-03-11T05:40:45.138Z,10.67
2023-03-11T05:43:11.716Z,10.71
2023-03-11T05:45:38.352Z,10.79
2023-03-11T05:48:05.055Z,10.83
2023-03-11T05:50:31.623Z,10.89
2023-03-11T05:52:58.209Z,10.95
2023-03-11T05:55:24.862Z,10.95
2023-03-11T05:57:52.338Z,10.95
2023-03-11T06:00:20.571Z,10.92
2023-03-11T06:02:47.148Z,10.86
2023-03-11T06:05:14.096Z,10.77
2023-03-11T06:07:40.747Z,10.63
2023-03-11T06:10:07.882Z,10.49
2023-03-11T06:12:35.277Z,10.42
2023-03-11T06:15:01.913Z,10.44
2023-03-11T06:17:30.388Z,10.49
2023-03-11T06:19:57.087Z,10.54
2023-03-11T06:22:23.675Z,10.57
2023-03-11T06:24:50.392Z,10.56
2023-03-11T06:27:16.997Z,10.56
2023-03-11T06:29:43.522Z,10.60
2023-03-11T06:32:10.154Z,10.65
2023-03-11T06:34:37.592Z,10.69
2023-03-11T06:37:04.205Z,10.74
2023-03-11T06:39:30.729Z,10.79
2023-03-11T06:41:57.267Z,10.82
2023-03-11T06:44:23.792Z,10.85
2023-03-11T06:46:50.356Z,10.89
2023-03-11T06:49:16.931Z,10.88
2023-03-11T06:51:43.435Z,10.88
2023-03-11T06:54:10.300Z,10.93
2023-03-11T06:56:36.823Z,10.97
2023-03-11T06:59:03.380Z,11.01
2023-03-11T07:01:30.004Z,11.08
2023-03-11T07:03:56.562Z,11.16
2023-03-11T07:06:25.562Z,11.25
2023-03-11T07:08:53.098Z,11.34
2023-03-11T07:11:25.050Z,11.35
2023-03-11T07:13:51.946Z,11.37
2023-03-11T07:16:21.542Z,11.46
2023-03-11T07:18:49.106Z,11.49
2023-03-11T07:21:17.681Z,11.56
2023-03-11T07:23:44.652Z,11.62
2023-03-11T07:26:13.324Z,11.71
2023-03-11T07:28:40.520Z,11.81
2023-03-11T07:31:12.362Z,11.91
2023-03-11T07:33:38.971Z,12.03
2023-03-11T07:36:08.957Z,12.11
2023-03-11T07:38:35.822Z,12.21
2023-03-11T07:41:02.509Z,12.26
2023-03-11T07:43:29.276Z,12.31
2023-03-11T07:46:07.729Z,12.31
2023-03-11T07:48:35.595Z,12.32
2023-03-11T07:51:06.536Z,12.37
2023-03-11T07:53:34.231Z,12.45
2023-03-11T07:56:01.245Z,12.58
2023-03-11T07:58:28.010Z,12.74
2023-03-11T08:00:57.502Z,12.85
2023-03-11T08:03:25.011Z,12.98
2023-03-11T08:05:51.937Z,13.13
2023-03-11T08:08:18.500Z,13.23
2023-03-11T08:10:44.981Z,13.31
2023-03-11T08:13:11.504Z,13.36
2023-03-11T08:15:38.206Z,13.42
2023-03-11T08:18:05.344Z,13.48
2023-03-11T08:20:32.058Z,13.58
2023-03-11T08:22:58.705Z,13.68
2023-03-11T08:25:25.888Z,13.74
2023-03-11T08:27:52.456Z,13.73
2023-03-11T08:30:19.139Z,13.73
2023-03-11T08:32:45.825Z,13.83
2023-03-11T08:35:12.608Z,14.02
2023-03-11T08:37:39.329Z,14.22
2023-03-11T08:40:06.581Z,14.33
2023-03-11T08:42:33.190Z,14.31
2023-03-11T08:45:00.523Z,14.23
2023-03-11T08:47:27.358Z,14.19
2023-03-11T08:49:53.947Z,14.16
2023-03-11T08:52:20.494Z,14.08
2023-03-11T08:54:47.029Z,14.01
2023-03-11T08:57:13.596Z,13.95
2023-03-11T08:59:40.165Z,13.95
2023-03-11T09:02:07.142Z,13.99
2023-03-11T09:04:33.716Z,14.02
2023-03-11T09:07:00.239Z,14.08
2023-03-11T09:09:26.960Z,14.12
2023-03-11T09:11:53.489Z,14.14
2023-03-11T09:14:20.076Z,14.16
2023-03-11T09:16:46.667Z,14.18
2023-03-11T09:19:13.219Z,14.24
2023-03-11T09:21:39.805Z,14.34
2023-03-11T09:24:06.656Z,14.53
2023-03-11T09:26:33.503Z,14.62
2023-03-11T09:29:00.112Z,14.71
2023-03-11T09:31:26.737Z,14.76
2023-03-11T09:33:55.502Z,14.79
2023-03-11T09:36:22.459Z,14.88
2023-03-11T09:38:49.319Z,14.96
2023-03-11T09:41:18.823Z,15.02
2023-03-11T09:43:58.386Z,15.03
2023-03-11T09:46:45.343Z,14.99
2023-03-11T09:49:23.884Z,14.98
2023-03-11T09:51:58.309Z,14.99
2023-03-11T09:54:25.486Z,15.00
2023-03-11T09:56:52.197Z,15.04
2023-03-11T09:59:27.901Z,15.15
2023-03-11T10:01:54.534Z,15.30
2023-03-11T10:04:21.064Z,15.40
2023-03-11T10:06:48.315Z,15.48
2023-03-11T10:09:41.568Z,15.41
2023-03-11T10:12:08.243Z,15.38
2023-03-11T10:14:54.361Z,15.38
2023-03-11T10:17:20.787Z,15.42
2023-03-11T10:19:59.349Z,15.50
2023-03-11T10:22:35.147Z,15.54
2023-03-11T10:25:15.571Z,15.52
2023-03-11T10:27:49.668Z,15.46
2023-03-11T10:30:25.215Z,15.43
2023-03-11T10:32:59.016Z,15.42
2023-03-11T10:35:46.569Z,15.47
2023-03-11T10:38:23.526Z,15.51
2023-03-11T10:40:54.003Z,15.48
2023-03-11T10:43:37.660Z,15.48
2023-03-11T10:46:15.810Z,15.48
2023-03-11T10:48:42.530Z,15.41
2023-03-11T10:51:14.831Z,15.45
2023-03-11T10:53:56.038Z,15.48
2023-03-11T10:56:27.152Z,15.41
2023-03-11T10:58:54.905Z,15.42
2023-03-11T11:01:21.880Z,15.48
2023-03-11T11:03:51.231Z,15.50
2023-03-11T11:06:35.619Z,15.52
2023-03-11T11:09:06.662Z,15.48
2023-03-11T11:11:35.709Z,15.46
2023-03-11T11:14:02.472Z,15.51
2023-03-11T11:16:29.368Z,15.65
2023-03-11T11:19:12.494Z,15.79
2023-03-11T11:21:40.455Z,15.84
2023-03-11T11:24:17.602Z,15.84
2023-03-11T11:27:06.387Z,15.84
2023-03-11T11:29:34.719Z,15.89
2023-03-11T11:32:19.617Z,15.96
2023-03-11T11:34:59.878Z,15.92
2023-03-11T11:37:31.700Z,15.90
2023-03-11T11:40:11.178Z,15.87
2023-03-11T11:42:39.639Z,15.88
2023-03-11T11:45:13.232Z,15.88
2023-03-11T11:47:43.178Z,15.81
2023-03-11T11:50:43.747Z,15.63
2023-03-11T11:53:25.928Z,15.54
2023-03-11T11:55:53.973Z,15.42
2023-03-11T11:58:21.927Z,15.35
2023-03-11T12:01:10.005Z,15.30
2023-03-11T12:03:59.511Z,15.24
2023-03-11T12:06:44.347Z,15.34
2023-03-11T12:09:30.259Z,15.35
2023-03-11T12:12:05.835Z,15.28
2023-03-11T12:14:44.855Z,15.26
2023-03-11T12:17:12.873Z,15.22
2023-03-11T12:19:57.769Z,15.20
2023-03-11T12:22:42.617Z,15.16
2023-03-11T12:25:24.882Z,15.16
2023-03-11T12:28:17.102Z,15.16
2023-03-11T12:30:46.583Z,15.14
2023-03-11T12:33:17.831Z,15.12
2023-03-11T12:35:50.870Z,15.08
2023-03-11T12:38:32.934Z,15.09
2023-03-11T12:41:14.857Z,15.06
2023-03-11T12:43:41.241Z,15.09
2023-03-11T12:46:13.310Z,15.16
2023-03-11T12:48:52.200Z,15.20
2023-03-11T12:51:28.359Z,15.27
2023-03-11T12:53:55.598Z,15.27
2023-03-11T12:56:27.972Z,15.20
2023-03-11T12:59:39.125Z,15.14
2023-03-11T13:02:17.574Z,15.22
2023-03-11T13:05:33.555Z,15.24
2023-03-11T13:08:04.025Z,15.24
2023-03-11T13:10:42.908Z,15.27
2023-03-11T13:13:35.233Z,15.33
2023-03-11T13:16:25.115Z,15.34
2023-03-11T13:18:54.572Z,15.36
2023-03-11T13:21:27.245Z,15.36
2023-03-11T13:24:22.943Z,15.35
2023-03-11T13:27:04.998Z,15.36
2023-03-11T13:29:57.232Z,15.36
2023-03-11T13:32:29.959Z,15.35
2023-03-11T13:35:11.508Z,15.29
2023-03-11T13:37:38.271Z,15.27
2023-03-11T13:40:37.295Z,15.21
2023-03-11T13:43:24.835Z,15.18
2023-03-11T13:46:14.541Z,15.17
2023-03-11T13:48:45.423Z,15.12
2023-03-11T13:51:22.246Z,15.08
2023-03-11T13:53:56.646Z,15.02
2023-03-11T13:56:26.843Z,14.98
2023-03-11T13:58:53.430Z,14.97
2023-03-11T14:01:20.719Z,14.96
2023-03-11T14:03:48.250Z,14.98
2023-03-11T14:06:19.598Z,14.97
2023-03-11T14:08:57.564Z,14.96
2023-03-11T14:11:29.311Z,14.99
2023-03-11T14:13:55.741Z,14.90
2023-03-11T14:16:43.797Z,14.87
2023-03-11T14:19:18.410Z,14.90
2023-03-11T14:21:47.537Z,14.94
2023-03-11T14:24:28.215Z,14.93
2023-03-11T14:26:56.449Z,14.92
2023-03-11T14:29:42.049Z,14.98
2023-03-11T14:32:44.205Z,14.97
2023-03-11T14:35:21.012Z,14.98
2023-03-11T14:37:47.699Z,15.02
2023-03-11T14:40:37.805Z,15.10
2023-03-11T14:43:06.943Z,15.19
2023-03-11T14:45:36.523Z,15.25
2023-03-11T14:48:27.725Z,15.27
2023-03-11T14:50:57.104Z,15.31
2023-03-11T14:53:30.723Z,15.28
2023-03-11T14:56:04.023Z,15.24
2023-03-11T14:59:08.387Z,15.20
2023-03-11T15:01:41.078Z,15.09
2023-03-11T15:04:24.189Z,15.04
2023-03-11T15:06:50.983Z,14.93
2023-03-11T15:09:22.845Z,14.86
2023-03-11T15:11:52.351Z,14.88
2023-03-11T15:14:29.458Z,14.95
2023-03-11T15:17:13.370Z,15.01
2023-03-11T15:19:44.027Z,15.03
2023-03-11T15:22:39.252Z,15.03
2023-03-11T15:25:17.758Z,15.07
2023-03-11T15:27:44.377Z,15.10
2023-03-11T15:30:23.441Z,15.14
2023-03-11T15:32:50.491Z,15.11
2023-03-11T15:35:25.250Z,15.05
2023-03-11T15:38:13.801Z,15.05
2023-03-11T15:40:45.718Z,15.09
2023-03-11T15:43:15.478Z,15.14
2023-03-11T15:45:42.962Z,15.13
2023-03-11T15:48:13.758Z,15.12
2023-03-11T15:50:53.854Z,15.09
2023-03-11T15:53:21.517Z,15.07
2023-03-11T15:55:48.396Z,15.04
2023-03-11T15:58:16.900Z,15.03
2023-03-11T16:00:51.599Z,15.05
2023-03-11T16:03:18.748Z,14.96
2023-03-11T16:05:45.708Z,14.91
2023-03-11T16:08:12.675Z,14.88
2023-03-11T16:10:39.460Z,14.86
2023-03-11T16:13:06.544Z,14.90
2023-03-11T16:15:36.235Z,14.94
2023-03-11T16:18:07.748Z,14.92
2023-03-11T16:20:41.588Z,14.85
2023-03-11T16:23:12.846Z,14.79
2023-03-11T16:25:40.259Z,14.81
2023-03-11T16:28:10.119Z,14.81
2023-03-11T16:30:36.719Z,14.84
2023-03-11T16:33:05.024Z,14.79
2023-03-11T16:35:32.380Z,14.79
2023-03-11T16:38:00.562Z,14.86
2023-03-11T16:40:28.941Z,14.87
2023-03-11T16:42:59.524Z,14.82
2023-03-11T16:45:26.130Z,14.79
2023-03-11T16:47:52.672Z,14.79
2023-03-11T16:50:20.953Z,14.77
2023-03-11T16:52:48.958Z,14.76
2023-03-11T16:55:15.639Z,14.76
2023-03-11T16:57:42.227Z,14.76
2023-03-11T17:00:09.890Z,14.73
2023-03-11T17:02:37.390Z,14.67
2023-03-11T17:05:05.377Z,14.65
2023-03-11T17:07:32.426Z,14.59
2023-03-11T17:10:00.040Z,14.55
2023-03-11T17:12:27.653Z,14.48
2023-03-11T17:14:54.873Z,14.40
2023-03-11T17:17:22.275Z,14.33
2023-03-11T17:19:48.871Z,14.30
2023-03-11T17:22:15.930Z,14.29
2023-03-11T17:24:42.920Z,14.29
2023-03-11T17:27:09.697Z,14.28
2023-03-11T17:29:36.514Z,14.26
2023-03-11T17:32:03.386Z,14.24
2023-03-11T17:34:30.952Z,14.27
2023-03-11T17:36:57.783Z,14.23
2023-03-11T17:39:24.353Z,14.26
2023-03-11T17:41:52.051Z,14.27
2023-03-11T17:44:18.776Z,14.27
2023-03-11T17:46:45.343Z,14.24
2023-03-11T17:49:13.792Z,14.23
2023-03-11T17:51:40.441Z,14.24
2023-03-11T17:54:07.125Z,14.26
2023-03-11T17:56:33.737Z,14.28
2023-03-11T17:59:00.507Z,14.30
2023-03-11T18:01:28.440Z,14.32
2023-03-11T18:03:55.660Z,14.33
2023-03-11T18:06:23.112Z,14.34
2023-03-11T18:08:50.433Z,14.34
2023-03-11T18:11:22.817Z,14.31
2023-03-11T18:13:49.978Z,14.28
2023-03-11T18:16:24.794Z,14.26
2023-03-11T18:18:51.904Z,14.27
2023-03-11T18:21:21.298Z,14.28
2023-03-11T18:23:48.522Z,14.31
2023-03-11T18:26:17.351Z,14.30
2023-03-11T18:28:44.119Z,14.27
2023-03-11T18:31:18.785Z,14.26
2023-03-11T18:33:50.712Z,14.17
2023-03-11T18:36:24.491Z,14.10
2023-03-11T18:38:53.388Z,14.11
2023-03-11T18:41:21.010Z,14.10
2023-03-11T18:43:54.007Z,14.10
2023-03-11T18:46:21.018Z,14.09
2023-03-11T18:48:47.711Z,14.07
2023-03-11T18:51:15.309Z,14.06
2023-03-11T18:53:43.004Z,14.02
2023-03-11T18:56:13.067Z,13.94
2023-03-11T18:58:39.772Z,13.89
2023-03-11T19:01:10.319Z,13.86
2023-03-11T19:03:37.326Z,13.84
2023-03-11T19:06:04.299Z,13.77
2023-03-11T19:08:31.088Z,13.75
2023-03-11T19:10:57.747Z,13.75
2023-03-11T19:13:27.965Z,13.74
2023-03-11T19:16:00.408Z,13.73
2023-03-11T19:18:27.120Z,13.70
2023-03-11T19:21:01.039Z,13.67
2023-03-11T19:23:28.252Z,13.65
2023-03-11T19:26:03.107Z,13.59
2023-03-11T19:28:30.108Z,13.53
2023-03-11T19:30:57.901Z,13.51
2023-03-11T19:33:25.059Z,13.48
2023-03-11T19:35:56.416Z,13.45
2023-03-11T19:38:23.614Z,13.49
2023-03-11T19:40:54.289Z,13.49
2023-03-11T19:43:21.645Z,13.53
2023-03-11T19:45:50.212Z,13.56
2023-03-11T19:48:17.115Z,13.55
2023-03-11T19:50:43.738Z,13.54
2023-03-11T19:53:10.472Z,13.48
2023-03-11T19:55:37.094Z,13.42
2023-03-11T19:58:03.622Z,13.37
2023-03-11T20:00:30.673Z,13.35
2023-03-11T20:02:57.432Z,13.30
2023-03-11T20:05:24.097Z,13.22
2023-03-11T20:07:50.720Z,13.11
2023-03-11T20:10:17.858Z,13.08
2023-03-11T20:12:59.717Z,13.02
2023-03-11T20:15:28.839Z,13.00
2023-03-11T20:17:55.562Z,12.98
2023-03-11T20:20:22.438Z,12.96
2023-03-11T20:22:49.224Z,12.98
2023-03-11T20:25:16.223Z,12.95
2023-03-11T20:27:43.192Z,12.95
2023-03-11T20:30:10.447Z,12.96
2023-03-11T20:32:37.105Z,12.93
2023-03-11T20:35:04.283Z,12.92
2023-03-11T20:37:31.423Z,12.94
2023-03-11T20:39:58.355Z,12.95
2023-03-11T20:42:25.089Z,12.93
2023-03-11T20:44:54.830Z,12.88
2023-03-11T20:47:21.502Z,12.89
2023-03-11T20:49:48.440Z,12.88
2023-03-11T20:52:15.411Z,12.87
2023-03-11T20:54:44.180Z,12.88
2023-03-11T20:57:10.714Z,12.86
2023-03-11T20:59:37.334Z,12.87
2023-03-11T21:02:04.701Z,12.90
2023-03-11T21:04:32.650Z,12.92
2023-03-11T21:06:59.346Z,12.92
2023-03-11T21:09:26.057Z,12.93
2023-03-11T21:11:52.700Z,12.86
2023-03-11T21:14:19.414Z,12.83
2023-03-11T21:16:46.306Z,12.84
2023-03-11T21:19:13.740Z,12.85
2023-03-11T21:21:40.674Z,12.85
2023-03-11T21:24:07.998Z,12.83
2023-03-11T21:26:34.747Z,12.82
2023-03-11T21:29:01.474Z,12.81
2023-03-11T21:31:29.652Z,12.80
2023-03-11T21:33:58.544Z,12.79
2023-03-11T21:36:25.219Z,12.74
2023-03-11T21:38:52.068Z,12.70
2023-03-11T21:41:25.001Z,12.69
2023-03-11T21:43:53.046Z,12.68
2023-03-11T21:46:22.697Z,12.71
2023-03-11T21:48:49.678Z,12.76
2023-03-11T21:51:17.971Z,12.81
2023-03-11T21:53:44.603Z,12.85
2023-03-11T21:56:11.427Z,12.85
2023-03-11T21:58:38.083Z,12.84
2023-03-11T22:01:05.148Z,12.87
2023-03-11T22:03:35.678Z,12.87
2023-03-11T22:06:05.880Z,12.87
2023-03-11T22:08:32.514Z,12.90
2023-03-11T22:10:59.257Z,12.89
2023-03-11T22:13:25.930Z,12.91
2023-03-11T22:15:52.536Z,12.91
2023-03-11T22:18:19.291Z,12.90
2023-03-11T22:20:46.095Z,12.91
2023-03-11T22:23:12.758Z,12.89
2023-03-11T22:28:20.113Z,12.91
2023-03-11T22:30:46.743Z,12.91
2023-03-11T22:33:13.357Z,12.90
2023-03-11T22:35:40.507Z,12.85
2023-03-11T22:38:07.288Z,12.80
2023-03-11T22:40:34.986Z,12.75
2023-03-11T22:43:01.581Z,12.70
2023-03-11T22:45:28.184Z,12.67
2023-03-11T22:47:54.949Z,12.63
2023-03-11T22:50:21.829Z,12.55
2023-03-11T22:52:48.424Z,12.53
2023-03-11T22:55:15.207Z,12.47
2023-03-11T22:57:41.871Z,12.47
2023-03-11T23:00:17.165Z,12.48
2023-03-11T23:02:48.360Z,12.48
2023-03-11T23:05:15.588Z,12.49
2023-03-11T23:07:42.395Z,12.48
2023-03-11T23:10:11.616Z,12.46
2023-03-11T23:12:38.400Z,12.39
2023-03-11T23:15:08.376Z,12.28
2023-03-11T23:17:35.150Z,12.23
2023-03-11T23:20:02.052Z,12.24
2023-03-11T23:22:28.584Z,12.23
2023-03-11T23:24:55.254Z,12.25
2023-03-11T23:27:22.305Z,12.24
2023-03-11T23:29:48.826Z,12.23
2023-03-11T23:32:15.491Z,12.25
2023-03-11T23:34:42.026Z,12.23
2023-03-11T23:37:08.840Z,12.25
2023-03-11T23:39:35.534Z,12.24
2023-03-11T23:42:06.922Z,12.20
2023-03-11T23:44:41.401Z,12.13
2023-03-11T23:47:08.008Z,12.12
2023-03-11T23:49:34.585Z,12.14
2023-03-11T23:52:01.141Z,12.15
2023-03-11T23:54:27.619Z,12.20
2023-03-11T23:56:54.147Z,12.25
2023-03-11T23:59:20.731Z,12.28
